Time;durP1;ratioP1;P1;durP2;ratioP2;P2;SDS_P1;SDS_P2;PMS_P1;PMS_P2;Temp;Humidity;BMP_temperature;BMP_pressure;BME280_temperature;BME280_humidity;BME280_pressure;Samples;Min_cycle;Max_cycle;Signal;HPM_P1;HPM_P2
2023/01/01 00:01:48;;;;;;;29.13;14.73;;;;;;;;;;5090072;28;20040;-62
2023/01/01 00:04:15;;;;;;;25.58;13.68;;;;;;;;;;5103412;28;20042;-62
2023/01/01 00:06:41;;;;;;;25.33;11.80;;;;;;;;;;5085978;28;20489;-61
2023/01/01 00:11:52;;;;;;;20.42;9.43;;;;;;;;;;5101010;28;20031;-61
2023/01/01 00:14:18;;;;;;;19.90;9.90;;;;;;;;;;5094307;28;20529;-62
2023/01/01 00:16:44;;;;;;;17.55;9.55;;;;;;;;;;5070380;28;20052;-61
2023/01/01 00:19:10;;;;;;;18.98;12.70;;;;;;;;;;5082934;28;20077;-61
2023/01/01 00:21:36;;;;;;;18.10;10.48;;;;;;;;;;5077731;28;20039;-62
2023/01/01 00:24:02;;;;;;;21.90;11.93;;;;;;;;;;5096701;28;20097;-61
2023/01/01 00:26:28;;;;;;;19.73;12.55;;;;;;;;;;5083940;28;20047;-61
2023/01/01 00:28:54;;;;;;;18.40;12.02;;;;;;;;;;5098137;28;20046;-61
2023/01/01 00:31:21;;;;;;;17.60;11.30;;;;;;;;;;5092536;28;20502;-62
2023/01/01 00:33:51;;;;;;;17.02;10.88;;;;;;;;;;5097785;28;20231;-62
2023/01/01 00:36:18;;;;;;;23.42;11.43;;;;;;;;;;5087101;28;20051;-61
2023/01/01 00:38:44;;;;;;;18.58;10.32;;;;;;;;;;5074474;28;20082;-62
2023/01/01 00:41:11;;;;;;;25.65;13.48;;;;;;;;;;5099186;28;20455;-62
2023/01/01 00:43:37;;;;;;;23.33;11.57;;;;;;;;;;5087923;28;20067;-61
2023/01/01 00:46:04;;;;;;;13.32;9.90;;;;;;;;;;5088103;28;20082;-61
2023/01/01 00:48:30;;;;;;;18.55;9.35;;;;;;;;;;5092442;28;20044;-62
2023/01/01 00:50:56;;;;;;;16.83;9.27;;;;;;;;;;5084253;28;20040;-62
2023/01/01 00:53:22;;;;;;;21.90;9.27;;;;;;;;;;5085450;28;20043;-62
2023/01/01 00:55:49;;;;;;;17.83;10.68;;;;;;;;;;5094128;28;20047;-61
2023/01/01 00:58:16;;;;;;;15.00;10.18;;;;;;;;;;5085977;28;20459;-62
2023/01/01 01:00:42;;;;;;;30.70;15.50;;;;;;;;;;5076867;28;20039;-61
2023/01/01 01:03:09;;;;;;;17.73;13.18;;;;;;;;;;5095979;28;20541;-62
2023/01/01 01:05:37;;;;;;;25.70;14.10;;;;;;;;;;5095628;28;20075;-61
2023/01/01 01:08:04;;;;;;;32.03;15.68;;;;;;;;;;5097172;28;20043;-61
2023/01/01 01:10:30;;;;;;;23.20;14.88;;;;;;;;;;5092727;28;22079;-61
2023/01/01 01:12:56;;;;;;;22.67;16.48;;;;;;;;;;5092503;28;20135;-61
2023/01/01 01:15:21;;;;;;;17.45;14.68;;;;;;;;;;5099134;28;20553;-61
2023/01/01 01:17:47;;;;;;;20.55;15.73;;;;;;;;;;5086841;28;20043;-61
2023/01/01 01:20:13;;;;;;;24.38;16.25;;;;;;;;;;5082918;28;20040;-61
2023/01/01 01:22:40;;;;;;;21.77;15.45;;;;;;;;;;5098806;28;20067;-61
2023/01/01 01:25:06;;;;;;;32.17;18.92;;;;;;;;;;5083371;28;20477;-61
2023/01/01 01:27:32;;;;;;;30.65;17.58;;;;;;;;;;5085101;28;20103;-62
2023/01/01 01:29:58;;;;;;;33.38;19.08;;;;;;;;;;5098136;28;20127;-61
2023/01/01 01:32:24;;;;;;;27.92;19.65;;;;;;;;;;5083499;28;20131;-61
2023/01/01 01:34:50;;;;;;;31.80;21.55;;;;;;;;;;5094674;28;20048;-61
2023/01/01 01:37:16;;;;;;;29.25;22.52;;;;;;;;;;5082877;28;21006;-61
2023/01/01 01:39:42;;;;;;;39.83;25.05;;;;;;;;;;5097743;28;20126;-62
2023/01/01 01:42:12;;;;;;;34.55;26.83;;;;;;;;;;5086951;28;20115;-61
2023/01/01 01:44:48;;;;;;;35.70;24.70;;;;;;;;;;5104350;28;20599;-61
2023/01/01 01:47:21;;;;;;;35.00;27.55;;;;;;;;;;5104196;28;20075;-62
2023/01/01 01:49:48;;;;;;;38.42;25.23;;;;;;;;;;5097632;28;20127;-62
2023/01/01 01:52:14;;;;;;;35.00;26.35;;;;;;;;;;5085271;28;20459;-61
2023/01/01 01:54:40;;;;;;;42.30;30.55;;;;;;;;;;5086372;28;20534;-61
2023/01/01 01:57:08;;;;;;;33.47;26.50;;;;;;;;;;5086329;28;20075;-61
2023/01/01 01:59:40;;;;;;;43.08;29.65;;;;;;;;;;5103821;28;20048;-61
2023/01/01 02:02:09;;;;;;;42.78;29.45;;;;;;;;;;5105547;28;20118;-61
2023/01/01 02:04:35;;;;;;;38.25;28.58;;;;;;;;;;5093668;28;20050;-61
2023/01/01 02:07:01;;;;;;;42.95;30.65;;;;;;;;;;5093887;28;20047;-61
2023/01/01 02:09:27;;;;;;;37.90;30.15;;;;;;;;;;5101952;28;20039;-61
2023/01/01 02:11:53;;;;;;;37.53;29.40;;;;;;;;;;5103882;28;20428;-62
2023/01/01 02:14:19;;;;;;;40.05;29.80;;;;;;;;;;5096074;28;20039;-62
2023/01/01 02:17:02;;;;;;;33.38;28.23;;;;;;;;;;5090769;28;20103;-62
2023/01/01 02:19:47;;;;;;;37.70;28.15;;;;;;;;;;5091896;28;20050;-61
2023/01/01 02:22:21;;;;;;;45.75;30.02;;;;;;;;;;5103321;28;20071;-61
2023/01/01 02:24:49;;;;;;;37.08;30.67;;;;;;;;;;5102262;28;20100;-61
2023/01/01 02:27:31;;;;;;;41.40;28.27;;;;;;;;;;5101878;28;20044;-62
2023/01/01 02:30:04;;;;;;;40.33;29.45;;;;;;;;;;5102100;28;20039;-62
2023/01/01 02:32:41;;;;;;;39.78;28.92;;;;;;;;;;5083040;28;20490;-61
2023/01/01 02:37:59;;;;;;;42.75;31.30;;;;;;;;;;5098273;28;20512;-61
2023/01/01 02:40:26;;;;;;;39.90;30.05;;;;;;;;;;5086413;28;20071;-61
2023/01/01 02:42:53;;;;;;;40.30;27.92;;;;;;;;;;5097723;28;20428;-61
2023/01/01 02:45:19;;;;;;;44.65;30.98;;;;;;;;;;5099033;28;20424;-62
2023/01/01 02:47:45;;;;;;;38.95;28.55;;;;;;;;;;5097345;28;20580;-61
2023/01/01 02:50:13;;;;;;;41.70;31.52;;;;;;;;;;5100051;28;20485;-61
2023/01/01 02:52:58;;;;;;;37.20;29.73;;;;;;;;;;5100065;28;20040;-62
2023/01/01 02:55:42;;;;;;;39.28;28.25;;;;;;;;;;5092802;28;20079;-61
2023/01/01 03:01:04;;;;;;;37.90;28.35;;;;;;;;;;5093606;28;20585;-61
2023/01/01 03:03:39;;;;;;;37.35;26.27;;;;;;;;;;5097553;28;20054;-61
2023/01/01 03:06:23;;;;;;;34.40;26.88;;;;;;;;;;5095393;28;20062;-61
2023/01/01 03:08:52;;;;;;;34.92;27.52;;;;;;;;;;5097051;28;20071;-61
2023/01/01 03:11:19;;;;;;;35.67;26.85;;;;;;;;;;5098308;28;20042;-61
2023/01/01 03:13:54;;;;;;;36.97;25.38;;;;;;;;;;5097562;28;20480;-61
2023/01/01 03:16:30;;;;;;;38.97;25.42;;;;;;;;;;5085575;28;20047;-62
2023/01/01 03:19:09;;;;;;;31.27;23.15;;;;;;;;;;5094745;28;20502;-61
2023/01/01 03:21:55;;;;;;;41.17;23.83;;;;;;;;;;5095210;28;20102;-61
2023/01/01 03:24:25;;;;;;;25.95;17.42;;;;;;;;;;5080349;28;20055;-62
2023/01/01 03:26:53;;;;;;;28.50;18.00;;;;;;;;;;5086658;28;20354;-61
2023/01/01 03:29:21;;;;;;;22.88;15.30;;;;;;;;;;5086034;28;20047;-62
2023/01/01 03:31:48;;;;;;;19.95;13.00;;;;;;;;;;5097232;28;20101;-61
2023/01/01 03:34:19;;;;;;;18.02;9.98;;;;;;;;;;5098420;28;20032;-61
2023/01/01 03:36:51;;;;;;;15.45;9.27;;;;;;;;;;5095605;28;20058;-61
2023/01/01 03:39:20;;;;;;;16.33;9.88;;;;;;;;;;5086809;28;20452;-62
2023/01/01 03:41:49;;;;;;;13.38;8.38;;;;;;;;;;5096533;28;20039;-61
2023/01/01 03:44:19;;;;;;;12.10;8.07;;;;;;;;;;5083939;28;20044;-62
2023/01/01 03:46:46;;;;;;;14.25;6.75;;;;;;;;;;5094107;28;20043;-61
2023/01/01 03:49:13;;;;;;;9.60;6.72;;;;;;;;;;5097874;28;20040;-61
2023/01/01 03:51:48;;;;;;;13.73;7.07;;;;;;;;;;5086321;28;20044;-61
2023/01/01 03:54:20;;;;;;;11.38;6.45;;;;;;;;;;5093588;28;20068;-62
2023/01/01 03:56:49;;;;;;;11.10;6.80;;;;;;;;;;5094338;28;20346;-61
2023/01/01 03:59:18;;;;;;;9.13;6.53;;;;;;;;;;5096402;28;20078;-61
2023/01/01 04:01:46;;;;;;;15.80;7.78;;;;;;;;;;5086593;28;20043;-61
2023/01/01 04:04:12;;;;;;;12.40;6.80;;;;;;;;;;5077593;28;20126;-61
2023/01/01 04:06:38;;;;;;;12.35;6.97;;;;;;;;;;5094560;28;20043;-61
2023/01/01 04:09:08;;;;;;;12.70;5.68;;;;;;;;;;5098469;28;20176;-61
2023/01/01 04:14:28;;;;;;;12.48;5.78;;;;;;;;;;5079350;28;20052;-61
2023/01/01 04:16:55;;;;;;;11.23;5.18;;;;;;;;;;5098382;28;20488;-61
2023/01/01 04:19:21;;;;;;;13.40;5.60;;;;;;;;;;5091336;28;20105;-61
2023/01/01 04:21:47;;;;;;;13.02;4.63;;;;;;;;;;5097656;28;20036;-61
2023/01/01 04:24:13;;;;;;;8.95;4.20;;;;;;;;;;5096011;28;20075;-61
2023/01/01 04:26:40;;;;;;;10.55;4.22;;;;;;;;;;5085907;28;20048;-61
2023/01/01 04:29:06;;;;;;;7.25;3.42;;;;;;;;;;5088360;28;20116;-61
2023/01/01 04:31:33;;;;;;;9.05;3.20;;;;;;;;;;5097369;28;20502;-61
2023/01/01 04:33:59;;;;;;;8.23;3.10;;;;;;;;;;5085737;28;20410;-61
2023/01/01 04:36:25;;;;;;;12.90;2.70;;;;;;;;;;5086316;28;20054;-62
2023/01/01 04:38:51;;;;;;;8.68;2.42;;;;;;;;;;5096488;28;20043;-61
2023/01/01 04:41:17;;;;;;;5.65;2.47;;;;;;;;;;5087438;28;20043;-61
2023/01/01 04:43:48;;;;;;;8.80;2.40;;;;;;;;;;5086709;28;20047;-61
2023/01/01 04:46:14;;;;;;;9.38;2.40;;;;;;;;;;5091165;28;20035;-62
2023/01/01 04:48:40;;;;;;;7.05;3.17;;;;;;;;;;5085512;28;20040;-61
2023/01/01 04:51:06;;;;;;;8.05;3.17;;;;;;;;;;5097009;28;20046;-61
2023/01/01 04:53:33;;;;;;;10.07;3.45;;;;;;;;;;5093640;28;20055;-62
2023/01/01 04:56:06;;;;;;;10.60;3.53;;;;;;;;;;5086185;28;20367;-62
2023/01/01 04:58:33;;;;;;;12.00;3.80;;;;;;;;;;5090966;28;20040;-61
2023/01/01 05:00:59;;;;;;;11.00;3.28;;;;;;;;;;5084884;28;20131;-62
2023/01/01 05:03:25;;;;;;;11.18;3.53;;;;;;;;;;5092006;28;20222;-61
2023/01/01 05:06:05;;;;;;;7.55;3.03;;;;;;;;;;5097987;28;20046;-61
2023/01/01 05:08:32;;;;;;;7.53;2.97;;;;;;;;;;5068554;28;20058;-61
2023/01/01 05:11:01;;;;;;;8.13;2.67;;;;;;;;;;5088908;28;20040;-62
2023/01/01 05:13:27;;;;;;;7.43;2.92;;;;;;;;;;5072775;28;20039;-61
2023/01/01 05:15:53;;;;;;;14.02;3.08;;;;;;;;;;5074219;28;20043;-61
2023/01/01 05:18:19;;;;;;;14.98;3.60;;;;;;;;;;5069527;28;20060;-61
2023/01/01 05:20:45;;;;;;;7.45;2.60;;;;;;;;;;5086548;28;20048;-61
2023/01/01 05:23:11;;;;;;;11.75;4.07;;;;;;;;;;5077886;28;20058;-61
2023/01/01 05:25:38;;;;;;;9.55;2.63;;;;;;;;;;5087689;28;20481;-61
2023/01/01 05:28:04;;;;;;;9.45;2.67;;;;;;;;;;5096015;28;20032;-61
2023/01/01 05:30:30;;;;;;;7.88;2.30;;;;;;;;;;5098219;28;20067;-61
2023/01/01 05:32:56;;;;;;;9.63;2.78;;;;;;;;;;5085002;28;20056;-61
2023/01/01 05:35:22;;;;;;;8.18;2.83;;;;;;;;;;5091210;28;20900;-61
2023/01/01 05:37:48;;;;;;;12.55;2.65;;;;;;;;;;5097057;28;20055;-61
2023/01/01 05:40:14;;;;;;;10.73;2.65;;;;;;;;;;5096146;28;20048;-61
2023/01/01 05:42:40;;;;;;;5.25;1.90;;;;;;;;;;5093987;28;20036;-61
2023/01/01 05:45:06;;;;;;;8.07;2.03;;;;;;;;;;5094626;28;20094;-62
2023/01/01 05:47:32;;;;;;;6.72;1.98;;;;;;;;;;5093898;28;20079;-61
2023/01/01 05:49:58;;;;;;;6.55;2.00;;;;;;;;;;5094360;28;20075;-61
2023/01/01 05:52:24;;;;;;;6.22;1.80;;;;;;;;;;5094093;28;20058;-61
2023/01/01 05:54:50;;;;;;;7.97;2.42;;;;;;;;;;5091884;28;20093;-61
2023/01/01 05:57:16;;;;;;;6.30;2.08;;;;;;;;;;5088505;28;20047;-62
2023/01/01 05:59:42;;;;;;;4.80;1.70;;;;;;;;;;5094861;28;20047;-61
2023/01/01 06:02:08;;;;;;;11.63;2.00;;;;;;;;;;5083673;28;20082;-61
2023/01/01 06:04:34;;;;;;;5.60;2.00;;;;;;;;;;5083323;28;20118;-61
2023/01/01 06:07:00;;;;;;;5.65;1.80;;;;;;;;;;5092793;28;20138;-61
2023/01/01 06:09:27;;;;;;;13.45;2.50;;;;;;;;;;5082091;28;20040;-61
2023/01/01 06:11:53;;;;;;;8.25;2.15;;;;;;;;;;5094748;28;20043;-61
2023/01/01 06:14:19;;;;;;;7.80;2.58;;;;;;;;;;5082569;28;20383;-61
2023/01/01 06:16:45;;;;;;;10.25;2.75;;;;;;;;;;5093642;28;20039;-61
2023/01/01 06:19:11;;;;;;;9.52;2.80;;;;;;;;;;5092759;28;20036;-61
2023/01/01 06:21:37;;;;;;;7.40;2.33;;;;;;;;;;5084203;28;20474;-61
2023/01/01 06:24:03;;;;;;;3.55;1.23;;;;;;;;;;5093986;28;20050;-61
2023/01/01 06:26:30;;;;;;;4.63;1.27;;;;;;;;;;5091564;28;20075;-61
2023/01/01 06:28:57;;;;;;;5.03;1.70;;;;;;;;;;5084195;28;20051;-61
2023/01/01 06:31:23;;;;;;;5.85;1.77;;;;;;;;;;5095284;28;20040;-61
2023/01/01 06:33:50;;;;;;;9.10;1.92;;;;;;;;;;5095168;28;20050;-61
2023/01/01 06:36:17;;;;;;;7.00;1.95;;;;;;;;;;5095760;28;20559;-61
2023/01/01 06:38:44;;;;;;;13.57;2.58;;;;;;;;;;5083899;28;20112;-61
2023/01/01 06:41:11;;;;;;;10.10;2.13;;;;;;;;;;5090861;28;20111;-61
2023/01/01 06:43:37;;;;;;;10.15;2.47;;;;;;;;;;5092022;28;20044;-61
2023/01/01 06:46:23;;;;;;;10.35;2.50;;;;;;;;;;5092137;28;20096;-61
2023/01/01 06:48:50;;;;;;;14.98;2.33;;;;;;;;;;5094303;28;20046;-62
2023/01/01 06:51:18;;;;;;;7.72;2.35;;;;;;;;;;5090434;28;20044;-61
2023/01/01 06:53:45;;;;;;;8.65;2.20;;;;;;;;;;5082831;28;20109;-61
2023/01/01 06:56:11;;;;;;;11.57;2.15;;;;;;;;;;5094005;28;20051;-61
2023/01/01 06:58:37;;;;;;;4.63;1.77;;;;;;;;;;5084786;28;20043;-61
2023/01/01 07:01:03;;;;;;;8.60;2.05;;;;;;;;;;5096048;28;20098;-61
2023/01/01 07:03:29;;;;;;;9.18;2.00;;;;;;;;;;5089991;28;20075;-61
2023/01/01 07:05:55;;;;;;;12.68;3.47;;;;;;;;;;5095815;28;20070;-61
2023/01/01 07:08:21;;;;;;;6.95;1.88;;;;;;;;;;5084424;28;20036;-61
2023/01/01 07:10:47;;;;;;;5.18;2.05;;;;;;;;;;5084153;28;20093;-61
2023/01/01 07:13:13;;;;;;;11.70;2.70;;;;;;;;;;5088252;28;20040;-61
2023/01/01 07:15:40;;;;;;;11.02;2.22;;;;;;;;;;5083492;28;20711;-61
2023/01/01 07:18:06;;;;;;;10.68;2.08;;;;;;;;;;5093138;28;20040;-61
2023/01/01 07:20:32;;;;;;;10.57;2.53;;;;;;;;;;5097297;28;20149;-61
2023/01/01 07:23:01;;;;;;;14.32;2.22;;;;;;;;;;5088775;28;20496;-61
2023/01/01 07:25:27;;;;;;;11.57;2.90;;;;;;;;;;5085736;28;20127;-61
2023/01/01 07:27:53;;;;;;;10.98;2.40;;;;;;;;;;5096737;28;20044;-61
2023/01/01 07:30:19;;;;;;;14.75;2.40;;;;;;;;;;5088726;28;20043;-61
2023/01/01 07:32:45;;;;;;;14.70;2.60;;;;;;;;;;5099648;28;20493;-61
2023/01/01 07:35:11;;;;;;;6.25;2.40;;;;;;;;;;5097462;28;20174;-61
2023/01/01 07:37:37;;;;;;;9.45;2.22;;;;;;;;;;5087569;28;20131;-62
2023/01/01 07:40:03;;;;;;;13.88;3.05;;;;;;;;;;5086336;28;20054;-61
2023/01/01 07:42:29;;;;;;;15.82;3.92;;;;;;;;;;5095160;28;20051;-61
2023/01/01 07:44:55;;;;;;;11.68;2.70;;;;;;;;;;5098178;28;20048;-61
2023/01/01 07:47:22;;;;;;;10.25;2.85;;;;;;;;;;5088118;28;20039;-62
2023/01/01 07:49:49;;;;;;;15.85;3.42;;;;;;;;;;5087021;28;20036;-61
2023/01/01 07:52:15;;;;;;;11.68;2.70;;;;;;;;;;5085549;28;20043;-61
2023/01/01 07:54:41;;;;;;;13.73;2.88;;;;;;;;;;5086620;28;20048;-61
2023/01/01 07:57:07;;;;;;;11.52;2.53;;;;;;;;;;5097609;28;20040;-61
2023/01/01 07:59:33;;;;;;;13.43;3.40;;;;;;;;;;5093483;28;20059;-61
2023/01/01 08:01:59;;;;;;;16.02;3.55;;;;;;;;;;5086356;28;20507;-62
2023/01/01 08:04:25;;;;;;;13.85;3.28;;;;;;;;;;5104126;28;20040;-61
2023/01/01 08:06:54;;;;;;;17.98;3.72;;;;;;;;;;5106418;28;20046;-62
2023/01/01 08:09:20;;;;;;;13.52;3.17;;;;;;;;;;5088104;28;20032;-61
2023/01/01 08:11:46;;;;;;;11.18;3.15;;;;;;;;;;5087540;28;20127;-62
2023/01/01 08:14:12;;;;;;;18.42;3.28;;;;;;;;;;5100541;28;20390;-61
2023/01/01 08:16:38;;;;;;;14.55;3.67;;;;;;;;;;5099228;28;20044;-62
2023/01/01 08:19:05;;;;;;;20.80;4.53;;;;;;;;;;5087196;28;20040;-61
2023/01/01 08:21:33;;;;;;;21.90;4.00;;;;;;;;;;5085903;28;20402;-61
2023/01/01 08:23:59;;;;;;;14.85;3.67;;;;;;;;;;5096924;28;20036;-61
2023/01/01 08:26:28;;;;;;;14.57;3.53;;;;;;;;;;5095003;28;20126;-61
2023/01/01 08:28:54;;;;;;;17.50;3.47;;;;;;;;;;5094999;28;20044;-61
2023/01/01 08:31:20;;;;;;;14.77;3.03;;;;;;;;;;5070518;28;20047;-61
2023/01/01 08:33:46;;;;;;;19.50;3.67;;;;;;;;;;5096211;28;20401;-61
2023/01/01 08:36:12;;;;;;;17.33;3.53;;;;;;;;;;5095155;28;20053;-61
2023/01/01 08:38:38;;;;;;;14.18;3.47;;;;;;;;;;5095388;28;20043;-61
2023/01/01 08:41:04;;;;;;;12.55;3.50;;;;;;;;;;5093106;28;20040;-61
2023/01/01 08:43:30;;;;;;;14.00;3.55;;;;;;;;;;5072886;28;20484;-61
2023/01/01 08:45:56;;;;;;;13.73;3.55;;;;;;;;;;5082840;28;20089;-61
2023/01/01 08:48:22;;;;;;;12.50;2.97;;;;;;;;;;5084848;28;20501;-61
2023/01/01 08:50:52;;;;;;;11.93;2.85;;;;;;;;;;5095213;28;20477;-61
2023/01/01 08:53:18;;;;;;;16.88;3.65;;;;;;;;;;5102152;28;20375;-61
2023/01/01 08:55:44;;;;;;;19.13;4.60;;;;;;;;;;5086780;28;20130;-61
2023/01/01 08:58:10;;;;;;;19.55;3.75;;;;;;;;;;5085146;28;20052;-61
2023/01/01 09:00:36;;;;;;;13.25;3.97;;;;;;;;;;5101036;28;20043;-62
2023/01/01 09:03:02;;;;;;;21.58;4.28;;;;;;;;;;5095997;28;20063;-61
2023/01/01 09:05:28;;;;;;;13.07;3.28;;;;;;;;;;5095614;28;20382;-61
2023/01/01 09:07:54;;;;;;;15.93;4.15;;;;;;;;;;5094361;28;20047;-61
2023/01/01 09:10:20;;;;;;;14.55;3.47;;;;;;;;;;5097616;28;20036;-61
2023/01/01 09:12:46;;;;;;;20.33;3.65;;;;;;;;;;5076490;28;20093;-61
2023/01/01 09:15:16;;;;;;;20.95;3.88;;;;;;;;;;5083701;28;20043;-62
2023/01/01 09:17:42;;;;;;;15.13;3.40;;;;;;;;;;5085756;28;20088;-61
2023/01/01 09:20:08;;;;;;;19.85;4.30;;;;;;;;;;5100166;28;20040;-61
2023/01/01 09:22:34;;;;;;;18.98;3.97;;;;;;;;;;5098508;28;20050;-62
2023/01/01 09:25:00;;;;;;;18.77;3.92;;;;;;;;;;5099132;28;20404;-65
2023/01/01 09:27:26;;;;;;;25.30;4.63;;;;;;;;;;5081701;28;20047;-62
2023/01/01 09:29:52;;;;;;;11.90;3.30;;;;;;;;;;5088107;28;20044;-62
2023/01/01 09:32:18;;;;;;;18.02;4.40;;;;;;;;;;5084279;28;20055;-61
2023/01/01 09:34:44;;;;;;;15.60;3.45;;;;;;;;;;5099232;28;20055;-60
2023/01/01 09:37:10;;;;;;;16.58;4.10;;;;;;;;;;5100324;28;20054;-60
2023/01/01 09:39:36;;;;;;;15.23;3.65;;;;;;;;;;5086371;28;20052;-61
2023/01/01 09:42:19;;;;;;;15.57;4.95;;;;;;;;;;5101311;28;20109;-61
2023/01/01 09:44:45;;;;;;;17.98;3.78;;;;;;;;;;5086340;28;20067;-61
2023/01/01 09:47:19;;;;;;;17.35;3.90;;;;;;;;;;5083579;28;20152;-61
2023/01/01 09:49:46;;;;;;;22.65;4.20;;;;;;;;;;5090283;28;20044;-61
2023/01/01 09:52:14;;;;;;;23.50;4.68;;;;;;;;;;5095179;28;20482;-60
2023/01/01 09:54:41;;;;;;;16.83;4.03;;;;;;;;;;5081468;28;20038;-60
2023/01/01 09:57:09;;;;;;;11.95;3.55;;;;;;;;;;5066687;28;20047;-60
2023/01/01 09:59:36;;;;;;;18.60;5.25;;;;;;;;;;5085548;28;20070;-60
2023/01/01 10:02:27;;;;;;;16.75;3.42;;;;;;;;;;5086065;28;20055;-61
2023/01/01 10:05:02;;;;;;;19.55;3.58;;;;;;;;;;5084962;28;20040;-60
2023/01/01 10:07:34;;;;;;;20.23;3.90;;;;;;;;;;5083712;28;20430;-61
2023/01/01 10:10:06;;;;;;;21.97;3.80;;;;;;;;;;5097337;28;20083;-61
2023/01/01 10:12:44;;;;;;;19.35;3.90;;;;;;;;;;5087381;28;20054;-61
2023/01/01 10:15:16;;;;;;;18.05;4.28;;;;;;;;;;5104399;28;20078;-61
2023/01/01 10:17:47;;;;;;;19.45;3.85;;;;;;;;;;5089796;28;20051;-63
2023/01/01 10:20:22;;;;;;;18.77;3.97;;;;;;;;;;5075590;28;20132;-61
2023/01/01 10:22:50;;;;;;;17.92;4.30;;;;;;;;;;5090729;28;20078;-61
2023/01/01 10:25:21;;;;;;;22.13;3.67;;;;;;;;;;5066313;28;20074;-61
2023/01/01 10:27:53;;;;;;;14.98;3.85;;;;;;;;;;5061173;28;20059;-61
2023/01/01 10:30:21;;;;;;;16.52;3.78;;;;;;;;;;5051106;28;20044;-61
2023/01/01 10:32:48;;;;;;;21.42;4.07;;;;;;;;;;5068603;28;20044;-61
2023/01/01 10:35:15;;;;;;;16.63;3.95;;;;;;;;;;5078120;28;20051;-61
2023/01/01 10:37:42;;;;;;;14.77;3.55;;;;;;;;;;5066414;28;20059;-61
2023/01/01 10:40:27;;;;;;;15.40;3.70;;;;;;;;;;5063280;28;20362;-61
2023/01/01 10:42:54;;;;;;;15.55;3.70;;;;;;;;;;5096663;28;20052;-61
2023/01/01 10:45:27;;;;;;;17.70;3.92;;;;;;;;;;5085851;28;20040;-61
2023/01/01 10:48:10;;;;;;;15.20;3.90;;;;;;;;;;5105250;28;20044;-61
2023/01/01 10:50:44;;;;;;;13.75;3.17;;;;;;;;;;5085908;28;20048;-61
2023/01/01 10:53:29;;;;;;;9.38;2.90;;;;;;;;;;5081670;28;20040;-61
2023/01/01 10:56:10;;;;;;;17.27;4.32;;;;;;;;;;5084895;28;20474;-61
2023/01/01 10:58:47;;;;;;;14.40;2.85;;;;;;;;;;5087796;28;20051;-61
2023/01/01 11:01:13;;;;;;;18.75;3.88;;;;;;;;;;5084353;28;20075;-61
2023/01/01 11:03:52;;;;;;;12.75;3.72;;;;;;;;;;5089698;28;20169;-61
2023/01/01 11:06:26;;;;;;;16.15;3.55;;;;;;;;;;5082431;28;20565;-61
2023/01/01 11:08:53;;;;;;;10.95;3.05;;;;;;;;;;5065312;28;20544;-61
2023/01/01 11:11:27;;;;;;;16.02;4.43;;;;;;;;;;5079516;28;20054;-61
2023/01/01 11:13:55;;;;;;;11.60;2.92;;;;;;;;;;5058976;28;20056;-61
2023/01/01 11:16:22;;;;;;;11.00;3.22;;;;;;;;;;5090300;28;20085;-61
2023/01/01 11:18:49;;;;;;;13.35;3.00;;;;;;;;;;5081063;28;20071;-60
2023/01/01 11:21:19;;;;;;;15.63;3.03;;;;;;;;;;5108133;28;20044;-61
2023/01/01 11:23:45;;;;;;;11.50;2.95;;;;;;;;;;5090534;28;20083;-61
2023/01/01 11:26:14;;;;;;;14.00;3.17;;;;;;;;;;5108657;28;20079;-61
2023/01/01 11:28:41;;;;;;;12.30;2.92;;;;;;;;;;5089806;28;20063;-61
2023/01/01 11:31:10;;;;;;;19.23;2.90;;;;;;;;;;5082096;28;20044;-61
2023/01/01 11:33:39;;;;;;;18.52;2.72;;;;;;;;;;5069143;28;20490;-61
2023/01/01 11:36:05;;;;;;;8.68;2.55;;;;;;;;;;5076895;28;20066;-60
2023/01/01 11:38:31;;;;;;;15.13;2.80;;;;;;;;;;5083985;28;20044;-60
2023/01/01 11:41:02;;;;;;;9.98;2.45;;;;;;;;;;5085590;28;20178;-61
2023/01/01 11:43:29;;;;;;;15.15;3.20;;;;;;;;;;5108413;28;20119;-61
2023/01/01 11:45:57;;;;;;;9.23;3.35;;;;;;;;;;5089935;28;20052;-61
2023/01/01 11:48:29;;;;;;;13.98;3.53;;;;;;;;;;5093797;28;20052;-61
2023/01/01 11:50:56;;;;;;;9.37;2.73;;;;;;;;;;5069573;28;20131;-61
2023/01/01 11:53:23;;;;;;;15.65;2.70;;;;;;;;;;5068879;28;20044;-61
2023/01/01 11:55:51;;;;;;;9.40;2.53;;;;;;;;;;5068362;28;20062;-61
2023/01/01 11:58:17;;;;;;;14.65;2.85;;;;;;;;;;5086854;28;20048;-61
2023/01/01 12:00:43;;;;;;;14.60;2.92;;;;;;;;;;5100669;28;20042;-61
2023/01/01 12:03:14;;;;;;;13.20;2.92;;;;;;;;;;5099380;28;20051;-61
2023/01/01 12:05:44;;;;;;;14.23;3.50;;;;;;;;;;5089688;28;20078;-62
2023/01/01 12:08:12;;;;;;;12.40;3.17;;;;;;;;;;5086382;28;20051;-62
2023/01/01 12:10:59;;;;;;;8.07;2.53;;;;;;;;;;5056369;28;20134;-62
2023/01/01 12:13:27;;;;;;;13.32;3.47;;;;;;;;;;5069189;28;20694;-62
2023/01/01 12:15:58;;;;;;;16.30;2.80;;;;;;;;;;5094452;28;20043;-62
2023/01/01 12:18:27;;;;;;;12.48;3.03;;;;;;;;;;5085731;28;20119;-62
2023/01/01 12:20:56;;;;;;;13.82;3.25;;;;;;;;;;5067111;28;20056;-62
2023/01/01 12:23:22;;;;;;;10.68;3.22;;;;;;;;;;5096296;28;20075;-62
2023/01/01 12:26:00;;;;;;;9.90;2.30;;;;;;;;;;5107855;28;20104;-62
2023/01/01 12:28:42;;;;;;;12.32;2.90;;;;;;;;;;5088777;28;20051;-62
2023/01/01 12:31:19;;;;;;;9.65;2.70;;;;;;;;;;5060893;28;20226;-62
2023/01/01 12:33:54;;;;;;;15.20;3.33;;;;;;;;;;5089776;28;20048;-62
2023/01/01 12:36:28;;;;;;;10.88;2.65;;;;;;;;;;5105265;28;20405;-62
2023/01/01 12:39:17;;;;;;;13.68;3.05;;;;;;;;;;5084370;28;20156;-62
2023/01/01 12:41:50;;;;;;;10.85;2.33;;;;;;;;;;5058167;28;20051;-62
2023/01/01 12:44:20;;;;;;;9.55;2.13;;;;;;;;;;5083749;28;20048;-62
2023/01/01 12:46:58;;;;;;;10.65;2.30;;;;;;;;;;5096919;28;20040;-62
2023/01/01 12:49:41;;;;;;;14.95;2.50;;;;;;;;;;5081342;28;20052;-61
2023/01/01 12:52:07;;;;;;;;;;;;;;;;;;5102751;28;20044;-62
2023/01/01 12:54:42;;;;;;;11.55;2.90;;;;;;;;;;5090506;28;19930;-62
2023/01/01 12:57:31;;;;;;;11.13;2.72;;;;;;;;;;5089232;28;20043;-61
2023/01/01 12:59:59;;;;;;;14.45;2.67;;;;;;;;;;5033599;28;20625;-62
2023/01/01 13:02:28;;;;;;;6.80;2.47;;;;;;;;;;5104643;28;20047;-62
2023/01/01 13:04:57;;;;;;;14.77;2.70;;;;;;;;;;5085890;28;20047;-62
2023/01/01 13:07:27;;;;;;;15.02;3.47;;;;;;;;;;5090571;28;20044;-62
2023/01/01 13:09:53;;;;;;;10.95;2.65;;;;;;;;;;5068651;28;20048;-61
2023/01/01 13:12:21;;;;;;;10.43;3.03;;;;;;;;;;5086104;28;20174;-61
2023/01/01 13:14:51;;;;;;;9.52;2.92;;;;;;;;;;5068948;28;20051;-61
2023/01/01 13:17:21;;;;;;;10.00;2.33;;;;;;;;;;5093803;28;20040;-62
2023/01/01 13:19:56;;;;;;;21.67;3.40;;;;;;;;;;5085466;28;20137;-61
2023/01/01 13:22:25;;;;;;;12.07;3.63;;;;;;;;;;5071028;28;20051;-62
2023/01/01 13:25:09;;;;;;;18.40;3.70;;;;;;;;;;5105696;28;20505;-62
2023/01/01 13:28:03;;;;;;;16.60;3.58;;;;;;;;;;5090109;28;20043;-61
2023/01/01 13:30:48;;;;;;;9.07;3.05;;;;;;;;;;5082301;28;20477;-61
2023/01/01 13:33:35;;;;;;;13.98;2.65;;;;;;;;;;5074859;28;20052;-62
2023/01/01 13:36:07;;;;;;;8.98;2.15;;;;;;;;;;5106566;28;20128;-62
2023/01/01 13:38:47;;;;;;;9.55;3.05;;;;;;;;;;5107265;28;20568;-62
2023/01/01 13:41:29;;;;;;;15.30;2.97;;;;;;;;;;5087752;28;20118;-62
2023/01/01 13:44:03;;;;;;;9.85;2.65;;;;;;;;;;5088571;28;20107;-62
2023/01/01 13:46:29;;;;;;;16.05;2.60;;;;;;;;;;5106494;28;20039;-61
2023/01/01 13:49:15;;;;;;;9.27;2.70;;;;;;;;;;5088024;28;20055;-62
2023/01/01 13:51:51;;;;;;;15.57;3.47;;;;;;;;;;5106593;28;20043;-61
2023/01/01 13:54:29;;;;;;;12.13;3.60;;;;;;;;;;5091978;28;20044;-62
2023/01/01 13:56:58;;;;;;;8.93;2.92;;;;;;;;;;5086001;28;20454;-62
2023/01/01 13:59:30;;;;;;;10.95;2.88;;;;;;;;;;5086251;28;20044;-62
2023/01/01 14:01:59;;;;;;;13.30;3.13;;;;;;;;;;5078859;28;20064;-61
2023/01/01 14:04:31;;;;;;;12.57;3.10;;;;;;;;;;5080731;28;20368;-62
2023/01/01 14:06:59;;;;;;;10.35;3.20;;;;;;;;;;5092719;28;20048;-61
2023/01/01 14:09:25;;;;;;;11.32;2.65;;;;;;;;;;5085897;28;20100;-61
2023/01/01 14:11:51;;;;;;;8.30;2.53;;;;;;;;;;5090327;28;20059;-61
2023/01/01 14:14:28;;;;;;;13.98;3.13;;;;;;;;;;5102922;28;20040;-61
2023/01/01 14:16:58;;;;;;;12.32;2.90;;;;;;;;;;5101795;28;20048;-61
2023/01/01 14:19:24;;;;;;;12.48;3.65;;;;;;;;;;5101781;28;20087;-61
2023/01/01 14:21:50;;;;;;;13.48;4.10;;;;;;;;;;5086641;28;20146;-62
2023/01/01 14:24:18;;;;;;;13.90;3.95;;;;;;;;;;5086370;28;20079;-61
2023/01/01 14:26:45;;;;;;;8.77;3.80;;;;;;;;;;5098102;28;20372;-61
2023/01/01 14:29:16;;;;;;;6.97;2.47;;;;;;;;;;5083921;28;20570;-61
2023/01/01 14:31:43;;;;;;;13.20;2.88;;;;;;;;;;5087327;28;20089;-62
2023/01/01 14:34:13;;;;;;;11.85;2.78;;;;;;;;;;5101374;28;20054;-61
2023/01/01 14:36:48;;;;;;;14.38;3.40;;;;;;;;;;5090163;28;20044;-62
2023/01/01 14:39:23;;;;;;;11.43;2.72;;;;;;;;;;5091186;28;20044;-62
2023/01/01 14:41:49;;;;;;;13.18;3.53;;;;;;;;;;5088639;28;20048;-61
2023/01/01 14:44:18;;;;;;;8.23;2.33;;;;;;;;;;5102496;28;20448;-62
2023/01/01 14:46:48;;;;;;;13.32;3.42;;;;;;;;;;5107440;28;20063;-62
2023/01/01 14:49:17;;;;;;;9.35;2.85;;;;;;;;;;5099271;28;20036;-62
2023/01/01 14:51:44;;;;;;;12.25;2.95;;;;;;;;;;5071042;28;20059;-62
2023/01/01 14:54:15;;;;;;;15.05;3.47;;;;;;;;;;5101868;28;20386;-61